Terminal Aerodrome Forecast
Issued by NWS Boston, MA

Home | Current Version | Previous Version | Text Only | Print | Product List | Glossary On
Versions: 1 2 3 4 5 6 7 8 9 10 11 12 13 14 15 16 17 18 19 20 21 22 23 24 25 26 27 28 29 30 31 32 33 34
000
FTUS41 KBOX 220045 AAA
TAFORH
TAF AMD
KORH 220045Z 2201/2224 22005KT 1SM BR BKN002 BKN010
     FM220400 27008KT 1 1/2SM BR BKN002
     FM221000 27009KT 4SM BR BKN002
     FM221200 27010KT P6SM SCT050
     FM221300 27011KT P6SM BKN050
     FM221700 29013G25KT P6SM BKN250
     FM222300 30010KT P6SM SCT250=

USA.gov is the U.S. government's official web portal to all federal, state and local government web resources and services.